Time;durP1;ratioP1;P1;durP2;ratioP2;P2;SDS_P1;SDS_P2;PMS_P1;PMS_P2;Temp;Humidity;BMP_temperature;BMP_pressure;BME280_temperature;BME280_humidity;BME280_pressure;Samples;Min_cycle;Max_cycle;Signal;HPM_P1;HPM_P2
2021/10/30 00:01:59;;;;;;;13.25;6.85;;;;;;;;;;5070046;28;20046;-62
2021/10/30 00:04:25;;;;;;;11.20;6.07;;;;;;;;;;5066209;28;20048;-60
2021/10/30 00:06:50;;;;;;;11.68;6.68;;;;;;;;;;5040528;28;20089;-61
2021/10/30 00:09:18;;;;;;;15.65;6.55;;;;;;;;;;5053043;28;20040;-60
2021/10/30 00:11:51;;;;;;;15.65;6.68;;;;;;;;;;5071518;28;20020;-60
2021/10/30 00:14:27;;;;;;;11.85;7.18;;;;;;;;;;5053640;28;20040;-62
2021/10/30 00:16:57;;;;;;;10.32;5.72;;;;;;;;;;5054538;28;20032;-61
2021/10/30 00:19:27;;;;;;;11.57;6.10;;;;;;;;;;5040689;28;22029;-60
2021/10/30 00:21:53;;;;;;;12.45;7.13;;;;;;;;;;5032779;28;20088;-61
2021/10/30 00:24:20;;;;;;;13.82;6.85;;;;;;;;;;4988433;28;20043;-60
2021/10/30 00:26:49;;;;;;;13.68;5.70;;;;;;;;;;5021169;28;20071;-61
2021/10/30 00:29:17;;;;;;;14.00;6.40;;;;;;;;;;5037854;28;20507;-60
2021/10/30 00:31:45;;;;;;;16.30;7.43;;;;;;;;;;5023607;28;20036;-60
2021/10/30 00:34:11;;;;;;;16.55;6.75;;;;;;;;;;5021630;28;20029;-60
2021/10/30 00:36:39;;;;;;;11.95;6.68;;;;;;;;;;5022420;28;20033;-60
2021/10/30 00:39:06;;;;;;;10.60;6.50;;;;;;;;;;5022502;28;20095;-59
2021/10/30 00:41:32;;;;;;;11.90;6.30;;;;;;;;;;5021715;28;20148;-60
2021/10/30 00:44:05;;;;;;;13.10;7.10;;;;;;;;;;5020578;28;20917;-61
2021/10/30 00:46:33;;;;;;;12.95;6.75;;;;;;;;;;5016394;28;20679;-60
2021/10/30 00:49:01;;;;;;;15.68;6.97;;;;;;;;;;5028495;28;20048;-61
2021/10/30 00:51:32;;;;;;;17.40;6.82;;;;;;;;;;5020487;28;20045;-60
2021/10/30 00:54:02;;;;;;;15.25;7.30;;;;;;;;;;5006031;28;20036;-61
2021/10/30 00:56:31;;;;;;;17.25;7.13;;;;;;;;;;5021082;28;20033;-61
2021/10/30 00:59:00;;;;;;;14.25;6.25;;;;;;;;;;5020206;28;20060;-61
2021/10/30 01:01:30;;;;;;;9.45;6.15;;;;;;;;;;5020228;28;20688;-61
2021/10/30 01:03:59;;;;;;;12.80;7.32;;;;;;;;;;5015216;28;20040;-61
2021/10/30 01:06:24;;;;;;;14.57;7.65;;;;;;;;;;5020036;28;20979;-60
2021/10/30 01:08:52;;;;;;;14.65;7.28;;;;;;;;;;5032124;28;20068;-61
2021/10/30 01:11:20;;;;;;;11.57;6.78;;;;;;;;;;5018797;28;20143;-61
2021/10/30 01:13:47;;;;;;;14.70;7.40;;;;;;;;;;5021942;28;20025;-60
2021/10/30 01:16:17;;;;;;;13.75;7.57;;;;;;;;;;5021017;28;20017;-60
2021/10/30 01:18:43;;;;;;;17.58;7.00;;;;;;;;;;5036767;28;20044;-61
2021/10/30 01:21:10;;;;;;;14.55;7.65;;;;;;;;;;5005713;28;20136;-61
2021/10/30 01:23:40;;;;;;;14.65;7.25;;;;;;;;;;5035049;28;20072;-61
2021/10/30 01:26:06;;;;;;;14.98;6.78;;;;;;;;;;5032595;28;20048;-61
2021/10/30 01:28:40;;;;;;;14.95;7.30;;;;;;;;;;5029201;28;20032;-61
2021/10/30 01:31:07;;;;;;;18.63;7.72;;;;;;;;;;5032465;28;20044;-61
2021/10/30 01:33:39;;;;;;;18.85;7.38;;;;;;;;;;5034171;28;20166;-60
2021/10/30 01:36:09;;;;;;;14.02;7.05;;;;;;;;;;5032845;28;20472;-61
2021/10/30 01:38:37;;;;;;;18.00;8.45;;;;;;;;;;5030122;28;20120;-60
2021/10/30 01:41:03;;;;;;;14.48;7.50;;;;;;;;;;5033904;28;20029;-61
2021/10/30 01:43:29;;;;;;;11.68;6.60;;;;;;;;;;5011375;28;20106;-62
2021/10/30 01:45:55;;;;;;;16.17;7.22;;;;;;;;;;5030060;28;20044;-61
2021/10/30 01:48:27;;;;;;;13.65;6.72;;;;;;;;;;5029419;28;20053;-61
2021/10/30 01:50:53;;;;;;;14.77;7.32;;;;;;;;;;5046379;28;20724;-59
2021/10/30 01:53:21;;;;;;;11.60;7.32;;;;;;;;;;5030202;28;20032;-61
2021/10/30 01:55:48;;;;;;;14.05;6.78;;;;;;;;;;5031915;28;20044;-61
2021/10/30 01:58:15;;;;;;;16.40;7.15;;;;;;;;;;5031360;28;20083;-60
2021/10/30 02:00:47;;;;;;;11.98;6.38;;;;;;;;;;5032900;28;20049;-62
2021/10/30 02:03:13;;;;;;;12.23;6.88;;;;;;;;;;5032585;28;20099;-60
2021/10/30 02:05:40;;;;;;;15.93;7.15;;;;;;;;;;5012292;28;20063;-60
2021/10/30 02:08:06;;;;;;;14.98;7.05;;;;;;;;;;5028741;28;20056;-61
2021/10/30 02:10:37;;;;;;;13.73;7.38;;;;;;;;;;5029985;28;20574;-61
2021/10/30 02:13:02;;;;;;;13.70;7.07;;;;;;;;;;5028800;28;20029;-60
2021/10/30 02:15:28;;;;;;;13.60;6.40;;;;;;;;;;5028532;28;20039;-60
2021/10/30 02:17:56;;;;;;;14.60;7.82;;;;;;;;;;5012604;28;20055;-61
2021/10/30 02:20:24;;;;;;;15.48;6.78;;;;;;;;;;5012175;28;20100;-60
2021/10/30 02:22:53;;;;;;;12.57;6.60;;;;;;;;;;5029963;28;20060;-61
2021/10/30 02:25:21;;;;;;;10.27;6.53;;;;;;;;;;5065937;28;20041;-60
2021/10/30 02:27:52;;;;;;;12.88;6.78;;;;;;;;;;5050293;28;20032;-61
2021/10/30 02:30:22;;;;;;;13.05;6.63;;;;;;;;;;5051832;28;20048;-60
2021/10/30 02:32:48;;;;;;;15.52;6.43;;;;;;;;;;5047130;28;20054;-60
2021/10/30 02:35:14;;;;;;;14.10;7.03;;;;;;;;;;5048670;28;20068;-60
2021/10/30 02:37:42;;;;;;;12.70;6.53;;;;;;;;;;5050488;28;21893;-59
2021/10/30 02:40:08;;;;;;;11.43;6.50;;;;;;;;;;5051645;28;20070;-62
2021/10/30 02:42:36;;;;;;;11.50;6.07;;;;;;;;;;5047155;28;20045;-60
2021/10/30 02:45:03;;;;;;;15.05;7.22;;;;;;;;;;5034143;28;20038;-61
2021/10/30 02:47:29;;;;;;;12.25;6.35;;;;;;;;;;5049492;28;20033;-60
2021/10/30 02:49:54;;;;;;;13.98;6.38;;;;;;;;;;5048450;28;21980;-60
2021/10/30 02:52:26;;;;;;;16.52;7.85;;;;;;;;;;5053356;28;20032;-60
2021/10/30 02:54:52;;;;;;;11.32;7.05;;;;;;;;;;5049644;28;20028;-61
2021/10/30 02:57:18;;;;;;;12.77;6.53;;;;;;;;;;5051036;28;20082;-60
2021/10/30 02:59:46;;;;;;;10.00;6.18;;;;;;;;;;5049100;28;20033;-60
2021/10/30 03:02:14;;;;;;;13.25;6.43;;;;;;;;;;5050559;28;20376;-60
2021/10/30 03:04:44;;;;;;;17.38;5.90;;;;;;;;;;5049306;28;20040;-61
2021/10/30 03:07:12;;;;;;;12.90;6.45;;;;;;;;;;5048254;28;20040;-60
2021/10/30 03:09:38;;;;;;;13.45;7.03;;;;;;;;;;5052958;28;20104;-59
2021/10/30 03:12:05;;;;;;;16.73;7.30;;;;;;;;;;5050172;28;20036;-61
2021/10/30 03:14:33;;;;;;;12.52;6.82;;;;;;;;;;5035816;28;20039;-61
2021/10/30 03:16:59;;;;;;;14.95;7.80;;;;;;;;;;5034576;28;20103;-60
2021/10/30 03:19:27;;;;;;;16.88;7.57;;;;;;;;;;5047457;28;20487;-60
2021/10/30 03:21:52;;;;;;;13.40;7.47;;;;;;;;;;5059577;28;20055;-60
2021/10/30 03:24:23;;;;;;;14.27;6.97;;;;;;;;;;5042000;28;20040;-60
2021/10/30 03:26:53;;;;;;;15.18;7.85;;;;;;;;;;5071735;28;20060;-60
2021/10/30 03:29:21;;;;;;;15.60;8.23;;;;;;;;;;5053342;28;20441;-60
2021/10/30 03:31:49;;;;;;;12.15;6.97;;;;;;;;;;5053643;28;20050;-61
2021/10/30 03:34:18;;;;;;;16.40;7.43;;;;;;;;;;5054289;28;20047;-61
2021/10/30 03:36:48;;;;;;;14.20;7.80;;;;;;;;;;5056076;28;20023;-61
2021/10/30 03:39:18;;;;;;;21.55;8.10;;;;;;;;;;5070031;28;20118;-61
2021/10/30 03:41:43;;;;;;;23.92;8.48;;;;;;;;;;5072576;28;20052;-61
2021/10/30 03:44:09;;;;;;;15.80;7.88;;;;;;;;;;5070799;28;20019;-60
2021/10/30 03:46:42;;;;;;;15.50;7.65;;;;;;;;;;5071743;28;20055;-60
2021/10/30 03:49:12;;;;;;;18.10;7.75;;;;;;;;;;5067870;28;20035;-61
2021/10/30 03:51:38;;;;;;;13.52;7.72;;;;;;;;;;5040548;28;20697;-61
2021/10/30 03:54:05;;;;;;;13.80;7.35;;;;;;;;;;5035698;28;20020;-60
2021/10/30 03:56:33;;;;;;;11.88;7.90;;;;;;;;;;5070493;28;20028;-60
2021/10/30 03:59:01;;;;;;;14.38;7.78;;;;;;;;;;5053227;28;20088;-61
2021/10/30 04:01:26;;;;;;;13.65;7.55;;;;;;;;;;5052737;28;20498;-60
2021/10/30 04:03:54;;;;;;;16.45;7.22;;;;;;;;;;5071445;28;20059;-59
2021/10/30 04:06:23;;;;;;;19.48;6.95;;;;;;;;;;5069184;28;20040;-60
2021/10/30 04:08:48;;;;;;;15.63;7.57;;;;;;;;;;5019349;28;20769;-60
2021/10/30 04:11:16;;;;;;;11.80;7.25;;;;;;;;;;5069898;28;20040;-61
2021/10/30 04:13:49;;;;;;;11.38;6.32;;;;;;;;;;5070328;28;20036;-60
2021/10/30 04:16:20;;;;;;;15.23;7.78;;;;;;;;;;5038055;28;20024;-60
2021/10/30 04:18:45;;;;;;;16.23;7.75;;;;;;;;;;5058358;28;20632;-61
2021/10/30 04:21:13;;;;;;;14.60;7.80;;;;;;;;;;5068665;28;20055;-60
2021/10/30 04:23:44;;;;;;;15.45;7.85;;;;;;;;;;5050974;28;20097;-60
2021/10/30 04:26:12;;;;;;;16.15;8.55;;;;;;;;;;5053222;28;20024;-60
2021/10/30 04:28:42;;;;;;;22.48;8.60;;;;;;;;;;5069558;28;20068;-61
2021/10/30 04:31:11;;;;;;;16.33;8.82;;;;;;;;;;5068179;28;20116;-60
2021/10/30 04:33:43;;;;;;;18.33;8.65;;;;;;;;;;5071412;28;20042;-61
2021/10/30 04:36:15;;;;;;;20.10;9.45;;;;;;;;;;5035018;28;20127;-61
2021/10/30 04:39:08;;;;;;;20.98;9.77;;;;;;;;;;5071621;28;20032;-60
2021/10/30 04:41:38;;;;;;;19.92;9.32;;;;;;;;;;5040744;28;20047;-60
2021/10/30 04:44:04;;;;;;;20.75;9.10;;;;;;;;;;5052596;28;20039;-60
2021/10/30 04:46:30;;;;;;;23.95;10.15;;;;;;;;;;5068675;28;20138;-60
2021/10/30 04:48:55;;;;;;;18.52;10.05;;;;;;;;;;5051209;28;20388;-60
2021/10/30 04:51:24;;;;;;;20.50;10.82;;;;;;;;;;5070395;28;20044;-60
2021/10/30 04:53:52;;;;;;;22.75;9.70;;;;;;;;;;5055433;28;20024;-60
2021/10/30 04:56:17;;;;;;;27.02;11.13;;;;;;;;;;5037825;28;20032;-61
2021/10/30 04:58:45;;;;;;;20.50;10.25;;;;;;;;;;5073889;28;20032;-60
2021/10/30 05:01:16;;;;;;;24.17;10.80;;;;;;;;;;5055092;28;20047;-61
2021/10/30 05:03:46;;;;;;;22.98;10.73;;;;;;;;;;5040620;28;20044;-61
2021/10/30 05:06:16;;;;;;;23.55;12.05;;;;;;;;;;5073278;28;20032;-62
2021/10/30 05:08:44;;;;;;;23.05;11.60;;;;;;;;;;5073647;28;20656;-61
2021/10/30 05:11:10;;;;;;;24.33;11.70;;;;;;;;;;5072586;28;20047;-60
2021/10/30 05:13:38;;;;;;;26.50;11.45;;;;;;;;;;5056286;28;20052;-59
2021/10/30 05:16:08;;;;;;;20.80;10.40;;;;;;;;;;5074147;28;20028;-59
2021/10/30 05:18:36;;;;;;;27.15;11.63;;;;;;;;;;5054718;28;20033;-61
2021/10/30 05:21:04;;;;;;;27.88;11.38;;;;;;;;;;5040366;28;20027;-60
2021/10/30 05:23:38;;;;;;;26.83;11.55;;;;;;;;;;5056735;28;20027;-60
2021/10/30 05:26:03;;;;;;;21.63;11.02;;;;;;;;;;5055271;28;20048;-60
2021/10/30 05:28:35;;;;;;;25.60;12.10;;;;;;;;;;5071878;28;20066;-60
2021/10/30 05:31:01;;;;;;;30.92;12.85;;;;;;;;;;5053844;28;20070;-59
2021/10/30 05:33:31;;;;;;;29.25;12.93;;;;;;;;;;5057984;28;20033;-61
2021/10/30 05:36:04;;;;;;;27.42;13.30;;;;;;;;;;5029763;28;20150;-60
2021/10/30 05:38:43;;;;;;;25.58;13.27;;;;;;;;;;5054611;28;20040;-60
2021/10/30 05:41:08;;;;;;;27.40;14.45;;;;;;;;;;5071521;28;20193;-60
2021/10/30 05:43:38;;;;;;;33.10;14.90;;;;;;;;;;5055883;28;20028;-60
2021/10/30 05:46:07;;;;;;;33.92;13.25;;;;;;;;;;5073512;28;20759;-60
2021/10/30 05:48:35;;;;;;;28.27;13.98;;;;;;;;;;5076854;28;20050;-60
2021/10/30 05:51:05;;;;;;;31.85;14.68;;;;;;;;;;5054117;28;20048;-61
2021/10/30 05:53:35;;;;;;;35.22;15.25;;;;;;;;;;5056714;28;20012;-60
2021/10/30 05:56:00;;;;;;;38.60;17.05;;;;;;;;;;5055363;28;20024;-60
2021/10/30 05:58:26;;;;;;;41.88;16.00;;;;;;;;;;5075181;28;20475;-59
2021/10/30 06:00:53;;;;;;;35.80;17.75;;;;;;;;;;5058009;28;20040;-60
2021/10/30 06:03:21;;;;;;;38.75;15.80;;;;;;;;;;5072949;28;20024;-60
2021/10/30 06:05:49;;;;;;;35.08;16.48;;;;;;;;;;5060672;28;20051;-61
2021/10/30 06:08:17;;;;;;;37.10;17.05;;;;;;;;;;5038993;28;20082;-60
2021/10/30 06:10:42;;;;;;;40.03;17.38;;;;;;;;;;5036963;28;20097;-60
2021/10/30 06:13:08;;;;;;;36.20;16.85;;;;;;;;;;5072464;28;20032;-60
2021/10/30 06:15:35;;;;;;;42.25;17.75;;;;;;;;;;5054283;28;20040;-60
2021/10/30 06:18:03;;;;;;;50.10;18.15;;;;;;;;;;5074006;28;20028;-61
2021/10/30 06:20:29;;;;;;;35.85;17.90;;;;;;;;;;5073757;28;20044;-60
2021/10/30 06:22:57;;;;;;;38.92;16.40;;;;;;;;;;5070471;28;20086;-61
2021/10/30 06:25:22;;;;;;;36.75;16.73;;;;;;;;;;5055409;28;20178;-61
2021/10/30 06:27:50;;;;;;;37.30;17.00;;;;;;;;;;5073062;28;20043;-60
2021/10/30 06:30:21;;;;;;;33.22;17.50;;;;;;;;;;5053140;28;20043;-62
2021/10/30 06:32:51;;;;;;;38.75;16.77;;;;;;;;;;5074026;28;20036;-60
2021/10/30 06:35:21;;;;;;;38.70;16.92;;;;;;;;;;5069888;28;20040;-60
2021/10/30 06:37:51;;;;;;;35.85;15.93;;;;;;;;;;5074904;28;20142;-58
2021/10/30 06:40:21;;;;;;;35.60;16.38;;;;;;;;;;5043233;28;20036;-61
2021/10/30 06:42:47;;;;;;;30.73;14.63;;;;;;;;;;5056851;28;20036;-61
2021/10/30 06:45:14;;;;;;;34.33;14.35;;;;;;;;;;5065110;28;20028;-60
2021/10/30 06:47:40;;;;;;;30.00;14.27;;;;;;;;;;5053085;28;21938;-61
2021/10/30 06:50:09;;;;;;;31.10;14.32;;;;;;;;;;5041312;28;20124;-61
2021/10/30 06:52:41;;;;;;;36.00;16.13;;;;;;;;;;5038801;28;20040;-60
2021/10/30 06:55:07;;;;;;;29.65;14.07;;;;;;;;;;5038805;28;20643;-61
2021/10/30 06:57:36;;;;;;;28.02;13.35;;;;;;;;;;5074806;28;20554;-62
2021/10/30 07:00:06;;;;;;;28.42;13.07;;;;;;;;;;5056567;28;20061;-61
2021/10/30 07:02:34;;;;;;;26.45;12.73;;;;;;;;;;5054951;28;20023;-61
2021/10/30 07:05:00;;;;;;;34.35;13.77;;;;;;;;;;5070561;28;20065;-61
2021/10/30 07:07:28;;;;;;;29.52;11.82;;;;;;;;;;5072078;28;20024;-61
2021/10/30 07:10:04;;;;;;;26.38;13.23;;;;;;;;;;5070042;28;20023;-60
2021/10/30 07:12:34;;;;;;;25.10;11.13;;;;;;;;;;5070040;28;20048;-62
2021/10/30 07:14:59;;;;;;;23.65;11.63;;;;;;;;;;5041924;28;20151;-62
2021/10/30 07:17:27;;;;;;;22.20;10.73;;;;;;;;;;5043418;28;20043;-62
2021/10/30 07:19:54;;;;;;;22.13;11.30;;;;;;;;;;5072403;28;20032;-61
2021/10/30 07:22:20;;;;;;;21.65;11.40;;;;;;;;;;5073106;28;20059;-61
2021/10/30 07:24:50;;;;;;;22.98;11.63;;;;;;;;;;5059616;28;20068;-61
2021/10/30 07:27:17;;;;;;;23.58;10.90;;;;;;;;;;5037550;28;20032;-61
2021/10/30 07:29:46;;;;;;;15.98;8.82;;;;;;;;;;5065916;28;20150;-61
2021/10/30 07:32:11;;;;;;;24.38;9.45;;;;;;;;;;5070737;28;20035;-60
2021/10/30 07:34:42;;;;;;;19.75;8.95;;;;;;;;;;5051684;28;20036;-60
2021/10/30 07:37:13;;;;;;;15.63;8.55;;;;;;;;;;5068974;28;20035;-61
2021/10/30 07:39:41;;;;;;;19.17;9.10;;;;;;;;;;5049597;28;21210;-61
2021/10/30 07:42:11;;;;;;;22.83;9.13;;;;;;;;;;5070036;28;20024;-61
2021/10/30 07:48:12;;;;;;;15.90;8.13;;;;;;;;;;5070829;28;20027;-60
2021/10/30 07:50:42;;;;;;;18.58;8.55;;;;;;;;;;5032253;28;20058;-59
2021/10/30 07:53:08;;;;;;;14.30;8.35;;;;;;;;;;5069821;28;20058;-59
2021/10/30 07:55:38;;;;;;;18.55;8.38;;;;;;;;;;5035092;28;20131;-59
2021/10/30 07:58:05;;;;;;;20.02;8.43;;;;;;;;;;5070772;28;20016;-59
2021/10/30 08:00:39;;;;;;;23.00;8.47;;;;;;;;;;5069670;28;20584;-60
2021/10/30 08:03:08;;;;;;;17.42;7.85;;;;;;;;;;5055870;28;20302;-58
2021/10/30 08:05:34;;;;;;;18.15;8.75;;;;;;;;;;5067876;28;20032;-59
2021/10/30 08:07:59;;;;;;;13.90;8.68;;;;;;;;;;5070208;28;20043;-60
2021/10/30 08:10:27;;;;;;;19.80;8.90;;;;;;;;;;5066705;28;20032;-59
2021/10/30 08:12:55;;;;;;;15.32;7.88;;;;;;;;;;5057738;28;20032;-58
2021/10/30 08:15:21;;;;;;;17.58;7.93;;;;;;;;;;5047961;28;20097;-58
2021/10/30 08:17:46;;;;;;;22.48;7.45;;;;;;;;;;5068012;28;20052;-56
2021/10/30 08:20:14;;;;;;;16.17;7.45;;;;;;;;;;5064242;28;20028;-57
2021/10/30 08:22:45;;;;;;;29.73;7.57;;;;;;;;;;5071206;28;20048;-57
2021/10/30 08:25:10;;;;;;;16.40;7.88;;;;;;;;;;5032269;28;20074;-56
2021/10/30 08:27:40;;;;;;;13.60;7.20;;;;;;;;;;5070592;28;20036;-56
2021/10/30 08:30:06;;;;;;;17.80;8.02;;;;;;;;;;5070240;28;20075;-55
2021/10/30 08:32:33;;;;;;;12.05;6.88;;;;;;;;;;5076362;28;20040;-54
2021/10/30 08:35:01;;;;;;;15.68;7.95;;;;;;;;;;5057049;28;20028;-56
2021/10/30 08:37:29;;;;;;;20.35;7.88;;;;;;;;;;5055872;28;20036;-56
2021/10/30 08:39:54;;;;;;;17.33;7.03;;;;;;;;;;5072722;28;20038;-53
2021/10/30 08:42:21;;;;;;;14.90;6.88;;;;;;;;;;5073616;28;20036;-55
2021/10/30 08:44:49;;;;;;;16.25;7.57;;;;;;;;;;5069039;28;21782;-56
2021/10/30 08:47:20;;;;;;;18.10;7.35;;;;;;;;;;5056346;28;20127;-53
2021/10/30 08:49:48;;;;;;;16.85;7.43;;;;;;;;;;5070570;28;20047;-53
2021/10/30 08:52:13;;;;;;;14.50;7.25;;;;;;;;;;5024126;28;20035;-54
2021/10/30 08:54:41;;;;;;;13.50;7.28;;;;;;;;;;5074490;28;20683;-54
2021/10/30 08:57:09;;;;;;;13.80;6.60;;;;;;;;;;5074102;28;20478;-56
2021/10/30 08:59:39;;;;;;;10.63;6.45;;;;;;;;;;5055189;28;20024;-55
2021/10/30 09:02:05;;;;;;;14.80;6.95;;;;;;;;;;5056434;28;20044;-55
2021/10/30 09:04:31;;;;;;;13.35;6.60;;;;;;;;;;5074899;28;20038;-54
2021/10/30 09:06:56;;;;;;;14.48;6.63;;;;;;;;;;5058249;28;20036;-57
2021/10/30 09:09:24;;;;;;;12.82;6.85;;;;;;;;;;5057423;28;20039;-56
2021/10/30 09:12:16;;;;;;;12.30;5.68;;;;;;;;;;5074306;28;20035;-55
2021/10/30 09:14:44;;;;;;;9.48;5.60;;;;;;;;;;5050576;28;20032;-54
2021/10/30 09:17:23;;;;;;;10.88;5.50;;;;;;;;;;5056758;28;20439;-55
2021/10/30 09:19:54;;;;;;;11.00;5.28;;;;;;;;;;5071792;28;20032;-56
2021/10/30 09:22:24;;;;;;;11.60;6.22;;;;;;;;;;5077910;28;20509;-56
2021/10/30 09:24:59;;;;;;;10.20;5.63;;;;;;;;;;5072775;28;20520;-56
2021/10/30 09:27:43;;;;;;;10.82;5.38;;;;;;;;;;5075170;28;20128;-56
2021/10/30 09:30:12;;;;;;;9.73;5.97;;;;;;;;;;5071699;28;20044;-57
2021/10/30 09:32:37;;;;;;;13.55;6.53;;;;;;;;;;5072973;28;21589;-57
2021/10/30 09:35:08;;;;;;;11.00;6.65;;;;;;;;;;5072279;28;20036;-57
2021/10/30 09:37:36;;;;;;;10.35;5.45;;;;;;;;;;5073449;28;20809;-57
2021/10/30 09:40:38;;;;;;;13.20;5.63;;;;;;;;;;5073555;28;20082;-57
2021/10/30 09:43:06;;;;;;;9.45;5.72;;;;;;;;;;5006617;28;20034;-56
2021/10/30 09:45:35;;;;;;;11.48;5.75;;;;;;;;;;5059237;28;20044;-57
2021/10/30 09:48:05;;;;;;;9.90;4.82;;;;;;;;;;5054252;28;20056;-59
2021/10/30 09:50:33;;;;;;;8.02;5.43;;;;;;;;;;5054776;28;20801;-58
2021/10/30 09:53:03;;;;;;;11.52;5.60;;;;;;;;;;5075401;28;20032;-58
2021/10/30 09:55:28;;;;;;;15.25;6.75;;;;;;;;;;5054223;28;20139;-57
2021/10/30 09:58:00;;;;;;;9.15;4.82;;;;;;;;;;5041887;28;21026;-58
2021/10/30 10:00:25;;;;;;;6.93;5.13;;;;;;;;;;5054049;28;20041;-58
2021/10/30 10:03:00;;;;;;;9.77;4.97;;;;;;;;;;5055981;28;22326;-55
2021/10/30 10:05:28;;;;;;;9.15;5.47;;;;;;;;;;5058461;28;20034;-58
2021/10/30 10:07:54;;;;;;;9.07;5.30;;;;;;;;;;5043649;28;20028;-59
2021/10/30 10:10:20;;;;;;;8.88;5.40;;;;;;;;;;5073097;28;20114;-58
2021/10/30 10:12:46;;;;;;;10.57;4.78;;;;;;;;;;5041145;28;20478;-56
2021/10/30 10:15:12;;;;;;;9.75;4.57;;;;;;;;;;5072180;28;20036;-57
2021/10/30 10:17:38;;;;;;;11.20;5.18;;;;;;;;;;5055369;28;20151;-57
2021/10/30 10:20:08;;;;;;;8.05;4.85;;;;;;;;;;5073207;28;20036;-57
2021/10/30 10:22:36;;;;;;;11.77;5.53;;;;;;;;;;5074946;28;20084;-57
2021/10/30 10:25:21;;;;;;;8.23;4.65;;;;;;;;;;5073785;28;20143;-58
2021/10/30 10:27:51;;;;;;;8.38;5.10;;;;;;;;;;5057405;28;20043;-57
2021/10/30 10:30:16;;;;;;;9.32;5.05;;;;;;;;;;5074741;28;20047;-58
2021/10/30 10:32:42;;;;;;;11.18;4.40;;;;;;;;;;5075737;28;20032;-58
2021/10/30 10:35:15;;;;;;;7.30;4.88;;;;;;;;;;5056277;28;20071;-57
2021/10/30 10:37:49;;;;;;;11.20;4.93;;;;;;;;;;5041156;28;20024;-57
2021/10/30 10:40:30;;;;;;;10.77;4.30;;;;;;;;;;5073042;28;20039;-58
2021/10/30 10:42:59;;;;;;;7.25;4.10;;;;;;;;;;5056374;28;20141;-56
2021/10/30 10:45:46;;;;;;;7.53;3.85;;;;;;;;;;5040956;28;20035;-57
2021/10/30 10:48:20;;;;;;;6.45;3.90;;;;;;;;;;5073540;28;20029;-59
2021/10/30 10:50:51;;;;;;;7.15;4.40;;;;;;;;;;5055202;28;20032;-57
2021/10/30 10:53:20;;;;;;;9.98;4.90;;;;;;;;;;5042125;28;20024;-57
2021/10/30 10:55:45;;;;;;;7.43;4.22;;;;;;;;;;5074618;28;20030;-57
2021/10/30 10:58:14;;;;;;;7.75;3.85;;;;;;;;;;5073525;28;20028;-57
2021/10/30 11:01:00;;;;;;;6.32;4.07;;;;;;;;;;5046052;28;20038;-56
2021/10/30 11:03:33;;;;;;;5.50;3.45;;;;;;;;;;5073377;28;21394;-56
2021/10/30 11:05:59;;;;;;;7.10;4.38;;;;;;;;;;5072910;28;20036;-59
2021/10/30 11:08:27;;;;;;;6.93;3.45;;;;;;;;;;5056591;28;20142;-58
2021/10/30 11:11:12;;;;;;;8.07;4.00;;;;;;;;;;5072340;28;20035;-57
2021/10/30 11:13:52;;;;;;;6.93;4.00;;;;;;;;;;5072958;28;20035;-58
2021/10/30 11:16:22;;;;;;;8.05;3.97;;;;;;;;;;5054072;28;20196;-56
2021/10/30 11:19:01;;;;;;;4.78;3.65;;;;;;;;;;5055395;28;20028;-57
2021/10/30 11:21:37;;;;;;;9.10;4.03;;;;;;;;;;5055419;28;20052;-57
2021/10/30 11:24:17;;;;;;;6.57;4.17;;;;;;;;;;5072178;28;20047;-57
2021/10/30 11:26:52;;;;;;;6.47;3.83;;;;;;;;;;5073185;28;20807;-56
2021/10/30 11:29:18;;;;;;;5.40;3.45;;;;;;;;;;5073033;28;20032;-58
2021/10/30 11:31:50;;;;;;;7.95;3.80;;;;;;;;;;5055635;28;20046;-56
2021/10/30 11:34:18;;;;;;;7.00;3.33;;;;;;;;;;5071154;28;20028;-54
2021/10/30 11:36:45;;;;;;;7.95;3.67;;;;;;;;;;5060116;28;20504;-57
2021/10/30 11:39:15;;;;;;;12.20;4.45;;;;;;;;;;5052091;28;20748;-57
2021/10/30 11:41:44;;;;;;;8.63;3.25;;;;;;;;;;5029968;28;20036;-57
2021/10/30 11:44:10;;;;;;;7.45;3.75;;;;;;;;;;5054953;28;20036;-57
2021/10/30 11:47:04;;;;;;;9.90;3.72;;;;;;;;;;5074325;28;20024;-57
2021/10/30 11:49:33;;;;;;;9.18;4.05;;;;;;;;;;5069529;28;20698;-58
2021/10/30 11:52:05;;;;;;;5.80;3.78;;;;;;;;;;5072997;28;20036;-55
2021/10/30 11:54:37;;;;;;;6.50;3.55;;;;;;;;;;5071529;28;20032;-58
2021/10/30 11:57:08;;;;;;;5.05;3.55;;;;;;;;;;5056143;28;20110;-58
2021/10/30 11:59:37;;;;;;;6.53;3.40;;;;;;;;;;5056109;28;20024;-58
2021/10/30 12:02:13;;;;;;;4.47;2.83;;;;;;;;;;5056893;28;20094;-58
2021/10/30 12:04:41;;;;;;;5.87;3.90;;;;;;;;;;5036603;28;20514;-58
2021/10/30 12:07:10;;;;;;;8.10;3.90;;;;;;;;;;5072818;28;20117;-57
2021/10/30 12:09:41;;;;;;;6.03;3.67;;;;;;;;;;5072053;28;20406;-57
2021/10/30 12:12:10;;;;;;;7.43;4.05;;;;;;;;;;5071230;28;22234;-57
2021/10/30 12:14:44;;;;;;;7.45;3.85;;;;;;;;;;5041632;28;20025;-57
2021/10/30 12:17:12;;;;;;;5.85;3.90;;;;;;;;;;5071704;28;20032;-57
2021/10/30 12:19:41;;;;;;;11.48;3.95;;;;;;;;;;5052057;28;20020;-56
2021/10/30 12:22:09;;;;;;;4.45;3.13;;;;;;;;;;5072882;28;20048;-56
2021/10/30 12:24:37;;;;;;;11.88;4.60;;;;;;;;;;5072934;28;20177;-58
2021/10/30 12:27:04;;;;;;;7.63;4.10;;;;;;;;;;5071708;28;20132;-57
2021/10/30 12:29:31;;;;;;;7.95;3.60;;;;;;;;;;5052983;28;20032;-57
2021/10/30 12:32:06;;;;;;;10.15;3.90;;;;;;;;;;5040471;28;20056;-57
2021/10/30 12:34:35;;;;;;;8.23;3.80;;;;;;;;;;5070618;28;20752;-58
2021/10/30 12:37:04;;;;;;;6.75;3.65;;;;;;;;;;5039243;28;20135;-56
2021/10/30 12:39:30;;;;;;;5.50;3.17;;;;;;;;;;5071535;28;20024;-55
2021/10/30 12:42:02;;;;;;;6.32;3.78;;;;;;;;;;5072615;28;20032;-58
2021/10/30 12:44:35;;;;;;;7.78;3.58;;;;;;;;;;5068234;28;20503;-58
2021/10/30 12:47:02;;;;;;;6.70;4.00;;;;;;;;;;5072164;28;20028;-57
2021/10/30 12:49:32;;;;;;;5.78;3.50;;;;;;;;;;5072166;28;20032;-57
2021/10/30 12:52:02;;;;;;;4.95;3.00;;;;;;;;;;5072750;28;20044;-57
2021/10/30 12:54:28;;;;;;;5.75;3.20;;;;;;;;;;5070829;28;20477;-56
2021/10/30 12:56:54;;;;;;;7.15;3.92;;;;;;;;;;5072740;28;20029;-55
2021/10/30 12:59:33;;;;;;;5.20;3.50;;;;;;;;;;5052860;28;20028;-57
2021/10/30 13:02:01;;;;;;;11.52;3.80;;;;;;;;;;5073025;28;20307;-57
2021/10/30 13:04:28;;;;;;;8.18;3.60;;;;;;;;;;5051580;28;20825;-57
2021/10/30 13:06:58;;;;;;;8.13;3.88;;;;;;;;;;5061070;28;20036;-58
2021/10/30 13:09:26;;;;;;;8.02;3.05;;;;;;;;;;5070642;28;20028;-57
2021/10/30 13:11:54;;;;;;;5.85;3.60;;;;;;;;;;5073525;28;20060;-57
2021/10/30 13:14:24;;;;;;;6.55;3.80;;;;;;;;;;5053770;28;20040;-53
2021/10/30 13:16:52;;;;;;;5.93;3.30;;;;;;;;;;5054391;28;20033;-58
2021/10/30 13:19:20;;;;;;;10.77;3.30;;;;;;;;;;5075750;28;20053;-58
2021/10/30 13:21:51;;;;;;;5.90;3.08;;;;;;;;;;5074788;28;20052;-58
2021/10/30 13:24:20;;;;;;;5.43;3.25;;;;;;;;;;5075189;28;20035;-58
2021/10/30 13:26:55;;;;;;;4.43;3.50;;;;;;;;;;5057242;28;20172;-59
2021/10/30 13:29:24;;;;;;;4.47;3.03;;;;;;;;;;5058391;28;20085;-59
2021/10/30 13:31:49;;;;;;;4.70;3.40;;;;;;;;;;5062355;28;20040;-57
2021/10/30 13:34:17;;;;;;;5.07;2.92;;;;;;;;;;5074231;28;20032;-58
2021/10/30 13:36:42;;;;;;;10.05;2.70;;;;;;;;;;5059613;28;20136;-58
2021/10/30 13:39:08;;;;;;;5.05;2.47;;;;;;;;;;5059426;28;20036;-57
2021/10/30 13:41:37;;;;;;;5.60;2.67;;;;;;;;;;5072055;28;22102;-55
2021/10/30 13:44:06;;;;;;;5.43;2.67;;;;;;;;;;5073434;28;20019;-58
2021/10/30 13:46:34;;;;;;;4.88;2.63;;;;;;;;;;5055893;28;20067;-59
2021/10/30 13:49:03;;;;;;;4.32;2.70;;;;;;;;;;5056331;28;20035;-58
2021/10/30 13:51:31;;;;;;;3.30;2.63;;;;;;;;;;5073975;28;20027;-58
2021/10/30 13:53:59;;;;;;;3.88;2.75;;;;;;;;;;5071888;28;20036;-58
2021/10/30 13:56:30;;;;;;;7.32;2.72;;;;;;;;;;5035884;28;20883;-57
2021/10/30 13:58:58;;;;;;;3.88;2.10;;;;;;;;;;5061241;28;20039;-58
2021/10/30 14:01:25;;;;;;;4.85;2.58;;;;;;;;;;5071991;28;20039;-58
2021/10/30 14:03:52;;;;;;;4.43;2.40;;;;;;;;;;5074255;28;20154;-58
2021/10/30 14:06:21;;;;;;;3.72;2.25;;;;;;;;;;5038554;28;20032;-58
2021/10/30 14:08:50;;;;;;;2.95;1.98;;;;;;;;;;5075217;28;20049;-58
2021/10/30 14:11:15;;;;;;;5.57;2.53;;;;;;;;;;5041292;28;20027;-60
2021/10/30 14:13:42;;;;;;;4.75;2.47;;;;;;;;;;5057371;28;20047;-59
2021/10/30 14:16:11;;;;;;;3.45;2.33;;;;;;;;;;5073180;28;20049;-59
2021/10/30 14:18:38;;;;;;;5.95;2.60;;;;;;;;;;5055712;28;20020;-59
2021/10/30 14:21:06;;;;;;;6.22;2.63;;;;;;;;;;5055258;28;21744;-59
2021/10/30 14:23:43;;;;;;;3.80;2.42;;;;;;;;;;5055640;28;20147;-59
2021/10/30 14:26:09;;;;;;;7.88;2.88;;;;;;;;;;5073349;28;20031;-59
2021/10/30 14:28:36;;;;;;;5.32;2.63;;;;;;;;;;5074967;28;20081;-59
2021/10/30 14:31:05;;;;;;;6.22;3.03;;;;;;;;;;5055363;28;22085;-58
2021/10/30 14:33:42;;;;;;;5.55;3.15;;;;;;;;;;5038628;28;20077;-59
2021/10/30 14:36:07;;;;;;;6.18;3.17;;;;;;;;;;5070707;28;20078;-58
2021/10/30 14:38:33;;;;;;;6.65;3.10;;;;;;;;;;5058244;28;20036;-58
2021/10/30 14:44:10;;;;;;;5.72;2.63;;;;;;;;;;5057910;28;20066;-58
2021/10/30 14:46:36;;;;;;;10.50;3.00;;;;;;;;;;5075167;28;20118;-60
2021/10/30 14:49:04;;;;;;;4.43;2.90;;;;;;;;;;5074341;28;20479;-58